createdAt,value
2018-04-27T00:00:33.907Z,53.96
2018-04-27T00:03:01.566Z,53.81
2018-04-27T00:05:29.178Z,54.02
2018-04-27T00:07:56.826Z,53.90
2018-04-27T00:10:24.444Z,53.55
2018-04-27T00:12:52.106Z,53.89
2018-04-27T00:15:19.714Z,53.74
2018-04-27T00:17:47.411Z,54.07
2018-04-27T00:20:15.068Z,53.74
2018-04-27T00:22:42.682Z,53.97
2018-04-27T00:25:10.335Z,53.83
2018-04-27T00:27:37.947Z,53.75
2018-04-27T00:30:05.603Z,54.19
2018-04-27T00:32:33.227Z,54.55
2018-04-27T00:35:00.909Z,55.16
2018-04-27T00:37:28.523Z,56.43
2018-04-27T00:39:56.172Z,57.80
2018-04-27T00:42:23.785Z,57.85
2018-04-27T00:44:51.435Z,58.43
2018-04-27T00:47:19.036Z,58.69
2018-04-27T00:49:46.678Z,57.98
2018-04-27T00:52:14.281Z,58.33
2018-04-27T00:54:41.926Z,58.14
2018-04-27T00:57:09.519Z,58.24
2018-04-27T00:59:37.163Z,57.96
2018-04-27T01:02:04.767Z,57.56
2018-04-27T01:04:32.409Z,57.61
2018-04-27T01:07:00.002Z,58.54
2018-04-27T01:09:27.644Z,58.24
2018-04-27T01:11:55.248Z,58.23
2018-04-27T01:14:22.891Z,59.13
2018-04-27T01:16:50.483Z,59.61
2018-04-27T01:19:18.126Z,59.96
2018-04-27T01:21:45.721Z,60.04
2018-04-27T01:24:13.367Z,60.12
2018-04-27T01:26:41.779Z,60.45
2018-04-27T01:29:09.424Z,60.22
2018-04-27T01:31:37.083Z,59.97
2018-04-27T01:34:04.723Z,59.76
2018-04-27T01:36:32.342Z,59.55
2018-04-27T01:38:59.988Z,59.49
2018-04-27T01:41:27.632Z,60.15
2018-04-27T01:43:55.280Z,60.14
2018-04-27T01:46:22.887Z,60.25
2018-04-27T01:48:50.537Z,60.25
2018-04-27T01:51:18.152Z,60.53
2018-04-27T01:53:45.799Z,60.46
2018-04-27T01:56:13.400Z,60.27
2018-04-27T01:58:41.044Z,61.32
2018-04-27T02:01:08.647Z,61.19
2018-04-27T02:03:36.297Z,61.59
2018-04-27T02:06:03.937Z,61.42
2018-04-27T02:08:31.582Z,61.27
2018-04-27T02:10:59.231Z,61.07
2018-04-27T02:13:26.878Z,61.81
2018-04-27T02:15:54.533Z,62.06
2018-04-27T02:18:22.152Z,61.53
2018-04-27T02:20:49.794Z,61.03
2018-04-27T02:23:17.397Z,60.85
2018-04-27T02:25:45.038Z,61.47
2018-04-27T02:28:12.644Z,62.21
2018-04-27T02:30:40.296Z,63.17
2018-04-27T02:33:07.908Z,62.63
2018-04-27T02:35:35.560Z,62.05
2018-04-27T02:38:03.180Z,61.96
2018-04-27T02:40:30.827Z,62.02
2018-04-27T02:42:58.436Z,61.38
2018-04-27T02:45:26.083Z,61.52
2018-04-27T02:47:53.694Z,61.21
2018-04-27T02:50:21.350Z,60.79
2018-04-27T02:52:48.974Z,60.86
2018-04-27T02:55:16.618Z,60.82
2018-04-27T02:57:44.240Z,60.82
2018-04-27T03:00:11.888Z,61.85
2018-04-27T03:02:39.487Z,61.70
2018-04-27T03:05:07.192Z,61.46
2018-04-27T03:07:34.805Z,61.23
2018-04-27T03:10:02.495Z,61.09
2018-04-27T03:12:30.131Z,61.19
2018-04-27T03:14:57.828Z,61.34
2018-04-27T03:17:25.460Z,61.25
2018-04-27T03:19:53.122Z,61.64
2018-04-27T03:22:20.740Z,61.48
2018-04-27T03:24:48.401Z,61.93
2018-04-27T03:27:16.016Z,61.61
2018-04-27T03:29:43.699Z,61.63
2018-04-27T03:32:11.344Z,62.21
2018-04-27T03:34:38.996Z,62.73
2018-04-27T03:37:06.613Z,62.89
2018-04-27T03:39:34.261Z,63.11
2018-04-27T03:42:01.885Z,62.96
2018-04-27T03:44:29.540Z,62.76
2018-04-27T03:46:57.168Z,62.48
2018-04-27T03:49:24.821Z,62.76
2018-04-27T03:51:52.520Z,63.09
2018-04-27T03:54:20.117Z,62.48
2018-04-27T03:56:47.721Z,61.99
2018-04-27T03:59:21.272Z,62.41
2018-04-27T04:02:00.816Z,62.17
2018-04-27T04:04:40.242Z,61.95
2018-04-27T04:07:07.859Z,61.61
2018-04-27T04:09:35.503Z,61.40
2018-04-27T04:12:03.123Z,61.38
2018-04-27T04:14:30.784Z,61.79
2018-04-27T04:16:58.394Z,61.94
2018-04-27T04:19:26.023Z,61.83
2018-04-27T04:21:53.669Z,61.71
2018-04-27T04:24:21.275Z,61.67
2018-04-27T04:26:48.964Z,61.70
2018-04-27T04:29:16.566Z,61.51
2018-04-27T04:31:44.202Z,61.64
2018-04-27T04:34:11.822Z,61.79
2018-04-27T04:36:39.491Z,61.61
2018-04-27T04:39:07.162Z,61.83
2018-04-27T04:41:34.804Z,61.59
2018-04-27T04:44:02.446Z,61.37
2018-04-27T04:46:30.100Z,60.73
2018-04-27T04:48:57.714Z,60.83
2018-04-27T04:51:25.367Z,61.35
2018-04-27T04:53:52.999Z,61.43
2018-04-27T04:56:20.659Z,61.05
2018-04-27T04:58:48.262Z,60.37
2018-04-27T05:01:15.915Z,59.88
2018-04-27T05:03:43.563Z,59.56
2018-04-27T05:06:11.272Z,59.99
2018-04-27T05:08:38.882Z,59.59
2018-04-27T05:11:06.559Z,59.33
2018-04-27T05:13:34.162Z,59.11
2018-04-27T05:16:01.830Z,58.15
2018-04-27T05:18:30.911Z,57.26
2018-04-27T05:20:58.568Z,57.53
2018-04-27T05:23:26.183Z,56.13
2018-04-27T05:25:53.840Z,55.49
2018-04-27T05:28:21.455Z,54.68
2018-04-27T05:30:49.143Z,54.70
2018-04-27T05:33:17.266Z,55.47
2018-04-27T05:35:44.935Z,54.51
2018-04-27T05:38:12.561Z,55.58
2018-04-27T05:40:40.260Z,55.40
2018-04-27T05:43:07.865Z,55.27
2018-04-27T05:45:35.521Z,55.80
2018-04-27T05:48:03.131Z,56.74
2018-04-27T05:50:30.794Z,59.03
2018-04-27T05:52:58.462Z,57.73
2018-04-27T05:55:26.119Z,57.47
2018-04-27T05:57:53.727Z,58.07
2018-04-27T06:00:21.388Z,58.74
2018-04-27T06:02:49.026Z,58.58
2018-04-27T06:05:16.716Z,57.31
2018-04-27T06:07:44.343Z,57.78
2018-04-27T06:10:12.064Z,56.51
2018-04-27T06:12:39.672Z,55.19
2018-04-27T06:15:07.327Z,55.27
2018-04-27T06:17:34.945Z,55.17
2018-04-27T06:20:02.549Z,53.54
2018-04-27T06:22:30.199Z,53.44
2018-04-27T06:24:57.814Z,53.16
2018-04-27T06:27:25.494Z,54.69
2018-04-27T06:29:53.241Z,54.42
2018-04-27T06:32:20.900Z,51.90
2018-04-27T06:34:48.598Z,52.77
2018-04-27T06:37:16.356Z,50.69
2018-04-27T06:39:44.043Z,48.22
2018-04-27T06:42:11.689Z,48.43
2018-04-27T06:44:40.079Z,49.88
2018-04-27T06:47:07.770Z,49.13
2018-04-27T06:49:35.370Z,48.29
2018-04-27T06:52:03.023Z,48.11
2018-04-27T06:54:30.631Z,47.32
2018-04-27T06:56:58.275Z,48.21
2018-04-27T06:59:26.159Z,48.64
2018-04-27T07:01:53.831Z,48.57
2018-04-27T07:04:21.567Z,48.43
2018-04-27T07:06:49.225Z,48.30
2018-04-27T07:09:16.858Z,47.47
2018-04-27T07:11:44.518Z,50.09
2018-04-27T07:14:12.218Z,49.44
2018-04-27T07:16:39.896Z,49.02
2018-04-27T07:19:07.513Z,46.77
2018-04-27T07:21:36.099Z,44.23
2018-04-27T07:24:03.710Z,43.07
2018-04-27T07:26:31.349Z,42.96
2018-04-27T07:28:58.950Z,41.86
2018-04-27T07:31:26.594Z,40.75
2018-04-27T07:33:54.198Z,42.16
2018-04-27T07:36:21.899Z,41.78
2018-04-27T07:38:49.540Z,39.07
2018-04-27T07:41:17.219Z,38.44
2018-04-27T07:43:44.832Z,35.78
2018-04-27T07:46:12.509Z,36.08
2018-04-27T07:48:40.138Z,33.15
2018-04-27T07:51:07.791Z,32.65
2018-04-27T07:53:35.400Z,33.71
2018-04-27T07:56:03.051Z,34.81
2018-04-27T07:58:30.741Z,36.24
2018-04-27T08:00:58.388Z,34.46
2018-04-27T08:03:25.997Z,32.22
2018-04-27T08:05:53.646Z,34.11
2018-04-27T08:08:21.274Z,31.21
2018-04-27T08:10:49.029Z,34.21
2018-04-27T08:13:17.298Z,32.82
2018-04-27T08:15:44.959Z,31.22
2018-04-27T08:18:12.573Z,33.29
2018-04-27T08:20:40.267Z,31.81
2018-04-27T08:23:07.896Z,31.27
2018-04-27T08:25:35.573Z,32.12
2018-04-27T08:28:03.261Z,31.17
2018-04-27T08:30:30.884Z,29.96
2018-04-27T08:32:58.542Z,31.11
2018-04-27T08:35:26.182Z,30.35
2018-04-27T08:37:53.838Z,28.48
2018-04-27T08:40:21.464Z,30.77
2018-04-27T08:42:49.123Z,32.15
2018-04-27T08:45:16.739Z,29.93
2018-04-27T08:47:44.382Z,28.69
2018-04-27T08:50:12.014Z,27.17
2018-04-27T08:52:39.671Z,28.04
2018-04-27T08:55:07.274Z,29.08
2018-04-27T08:57:34.971Z,27.28
2018-04-27T09:00:02.704Z,32.11
2018-04-27T09:02:30.360Z,31.01
2018-04-27T09:04:57.975Z,31.62
2018-04-27T09:07:25.626Z,33.51
2018-04-27T09:09:53.231Z,31.84
2018-04-27T09:12:20.886Z,31.20
2018-04-27T09:14:48.504Z,32.66
2018-04-27T09:17:16.155Z,32.29
2018-04-27T09:19:43.787Z,32.33
2018-04-27T09:22:11.442Z,32.43
2018-04-27T09:24:39.075Z,32.52
2018-04-27T09:27:06.743Z,30.09
2018-04-27T09:29:34.399Z,30.69
2018-04-27T09:32:02.050Z,33.09
2018-04-27T09:34:29.713Z,32.46
2018-04-27T09:36:57.367Z,30.02
2018-04-27T09:39:25.011Z,31.12
2018-04-27T09:41:52.672Z,30.76
2018-04-27T09:44:20.347Z,30.00
2018-04-27T09:46:48.023Z,30.77
2018-04-27T09:49:15.638Z,28.78
2018-04-27T09:51:43.257Z,30.47
2018-04-27T09:54:10.910Z,29.37
2018-04-27T09:56:38.523Z,28.54
2018-04-27T09:59:06.179Z,29.38
2018-04-27T10:01:33.804Z,29.68
2018-04-27T10:04:01.473Z,29.55
2018-04-27T10:06:29.103Z,28.63
2018-04-27T10:08:56.756Z,28.65
2018-04-27T10:11:24.361Z,29.96
2018-04-27T10:13:52.006Z,29.55
2018-04-27T10:16:19.623Z,29.30
2018-04-27T10:18:47.271Z,28.16
2018-04-27T10:21:14.891Z,27.61
2018-04-27T10:23:42.555Z,28.90
2018-04-27T10:26:10.163Z,28.23
2018-04-27T10:28:37.810Z,27.60
2018-04-27T10:31:05.441Z,28.35
2018-04-27T10:33:33.122Z,28.96
2018-04-27T10:36:00.735Z,27.97
2018-04-27T10:38:28.340Z,27.88
2018-04-27T10:40:55.991Z,28.05
2018-04-27T10:43:23.611Z,26.76
2018-04-27T10:45:51.267Z,26.71
2018-04-27T10:48:18.892Z,26.88
2018-04-27T10:50:46.570Z,28.11
2018-04-27T10:53:14.182Z,29.00
2018-04-27T10:55:41.827Z,28.58
2018-04-27T10:58:09.498Z,28.39
2018-04-27T11:00:37.168Z,26.95
2018-04-27T11:03:04.862Z,27.34
2018-04-27T11:05:32.527Z,28.86
2018-04-27T11:08:00.131Z,26.62
2018-04-27T11:10:27.787Z,26.62
2018-04-27T11:12:55.403Z,27.83
2018-04-27T11:15:23.055Z,27.11
2018-04-27T11:17:50.678Z,27.07
2018-04-27T11:20:18.347Z,28.71
2018-04-27T11:22:45.994Z,29.16
2018-04-27T11:25:13.656Z,27.86
2018-04-27T11:27:41.321Z,28.50
2018-04-27T11:30:08.933Z,27.82
2018-04-27T11:32:36.583Z,27.20
2018-04-27T11:35:04.203Z,26.90
2018-04-27T11:37:31.847Z,28.12
2018-04-27T11:39:59.466Z,29.30
2018-04-27T11:42:27.130Z,28.87
2018-04-27T11:44:54.743Z,28.56
2018-04-27T11:47:22.390Z,28.07
2018-04-27T11:49:49.992Z,28.57
2018-04-27T11:52:17.643Z,30.14
2018-04-27T11:54:45.259Z,29.09
2018-04-27T11:57:13.039Z,28.71
2018-04-27T11:59:40.722Z,28.37
2018-04-27T12:02:09.202Z,28.17
2018-04-27T12:04:36.862Z,27.96
2018-04-27T12:07:04.552Z,28.28
2018-04-27T12:09:32.160Z,28.33
2018-04-27T12:11:59.831Z,28.38
2018-04-27T12:14:27.438Z,26.92
2018-04-27T12:16:55.087Z,26.68
2018-04-27T12:19:22.706Z,27.78
2018-04-27T12:21:50.347Z,28.31
2018-04-27T12:24:17.963Z,28.02
2018-04-27T12:26:45.625Z,27.15
2018-04-27T12:29:13.251Z,27.29
2018-04-27T12:31:41.019Z,27.39
2018-04-27T12:34:08.575Z,27.20
2018-04-27T12:36:36.218Z,27.13
2018-04-27T12:39:03.981Z,27.74
2018-04-27T12:41:31.581Z,25.76
2018-04-27T12:43:59.231Z,26.38
2018-04-27T12:46:26.952Z,25.42
2018-04-27T12:48:54.650Z,24.75
2018-04-27T12:51:22.307Z,26.27
2018-04-27T12:53:49.994Z,25.81
2018-04-27T12:56:17.594Z,25.52
2018-04-27T12:58:45.246Z,25.34
2018-04-27T13:01:12.856Z,25.25
2018-04-27T13:03:40.495Z,25.94
2018-04-27T13:06:08.093Z,24.76
2018-04-27T13:08:35.732Z,27.07
2018-04-27T13:11:03.341Z,25.93
2018-04-27T13:13:30.984Z,25.46
2018-04-27T13:16:04.069Z,26.13
2018-04-27T13:18:31.717Z,25.98
2018-04-27T13:20:59.335Z,26.39
2018-04-27T13:23:26.981Z,25.36
2018-04-27T13:25:54.602Z,25.72
2018-04-27T13:28:22.247Z,26.12
2018-04-27T13:30:49.862Z,26.54
2018-04-27T13:33:17.507Z,26.20
2018-04-27T13:35:45.107Z,25.84
2018-04-27T13:38:12.763Z,25.15
2018-04-27T13:40:40.372Z,25.74
2018-04-27T13:43:08.020Z,26.54
2018-04-27T13:45:35.651Z,26.21
2018-04-27T13:48:03.323Z,24.68
2018-04-27T13:50:30.990Z,25.60
2018-04-27T13:52:58.647Z,25.98
2018-04-27T13:55:26.264Z,26.41
2018-04-27T13:57:53.902Z,25.68
2018-04-27T14:00:21.597Z,26.33
2018-04-27T14:02:49.263Z,25.84
2018-04-27T14:05:16.952Z,27.02
2018-04-27T14:07:44.592Z,25.48
2018-04-27T14:10:12.212Z,25.67
2018-04-27T14:12:39.875Z,26.38
2018-04-27T14:15:07.489Z,25.57
2018-04-27T14:17:35.141Z,25.63
2018-04-27T14:20:02.765Z,26.48
2018-04-27T14:22:30.420Z,26.00
2018-04-27T14:24:58.027Z,26.10
2018-04-27T14:27:25.685Z,26.27
2018-04-27T14:29:53.341Z,26.75
2018-04-27T14:32:21.059Z,26.80
2018-04-27T14:34:48.640Z,26.31
2018-04-27T14:37:16.283Z,25.43
2018-04-27T14:39:43.894Z,25.56
2018-04-27T14:42:11.545Z,25.24
2018-04-27T14:44:39.170Z,25.53
2018-04-27T14:47:06.780Z,25.64
2018-04-27T14:49:34.436Z,25.42
2018-04-27T14:52:02.045Z,25.41
2018-04-27T14:54:29.720Z,26.25
2018-04-27T14:56:57.343Z,25.20
2018-04-27T14:59:25.008Z,26.54
2018-04-27T15:01:52.613Z,25.70
2018-04-27T15:04:20.255Z,25.81
2018-04-27T15:06:47.869Z,25.71
2018-04-27T15:09:15.514Z,26.83
2018-04-27T15:11:43.111Z,26.67
2018-04-27T15:14:10.782Z,26.68
2018-04-27T15:16:38.443Z,26.44
2018-04-27T15:19:06.188Z,27.87
2018-04-27T15:21:33.801Z,26.42
2018-04-27T15:24:01.439Z,26.06
2018-04-27T15:26:29.122Z,26.65
2018-04-27T15:28:56.811Z,26.86
2018-04-27T15:31:24.459Z,25.98
2018-04-27T15:33:52.122Z,26.16
2018-04-27T15:36:19.911Z,25.79
2018-04-27T15:38:47.558Z,26.48
2018-04-27T15:41:15.158Z,26.46
2018-04-27T15:43:42.811Z,26.71
2018-04-27T15:46:10.424Z,25.66
2018-04-27T15:48:38.135Z,26.26
2018-04-27T15:51:05.736Z,27.38
2018-04-27T15:53:33.450Z,27.38
2018-04-27T15:56:01.055Z,26.56
2018-04-27T15:58:28.703Z,28.15
2018-04-27T16:00:56.307Z,27.67
2018-04-27T16:03:24.016Z,27.83
2018-04-27T16:05:51.619Z,27.25
2018-04-27T16:08:19.262Z,26.33
2018-04-27T16:10:46.879Z,25.83
2018-04-27T16:16:31.384Z,24.87
2018-04-27T16:19:00.548Z,25.82
2018-04-27T16:21:28.237Z,26.20
2018-04-27T16:23:55.949Z,26.51
2018-04-27T16:26:38.470Z,25.50
2018-04-27T16:29:06.115Z,26.43
2018-04-27T16:31:33.719Z,27.12
2018-04-27T16:34:01.368Z,27.71
2018-04-27T16:36:29.000Z,26.45
2018-04-27T16:38:56.647Z,27.13
2018-04-27T16:41:24.252Z,27.30
2018-04-27T16:43:51.900Z,26.53
2018-04-27T16:46:19.543Z,26.38
2018-04-27T16:48:47.191Z,28.22
2018-04-27T16:51:14.791Z,27.36
2018-04-27T16:53:42.434Z,27.24
2018-04-27T16:56:10.103Z,26.89
2018-04-27T16:58:37.746Z,27.21
2018-04-27T17:01:05.414Z,27.47
2018-04-27T17:03:33.288Z,28.21
2018-04-27T17:06:00.831Z,27.81
2018-04-27T17:08:28.485Z,27.38
2018-04-27T17:10:56.174Z,27.29
2018-04-27T17:13:23.872Z,27.11
2018-04-27T17:15:51.487Z,27.68
2018-04-27T17:18:19.136Z,27.72
2018-04-27T17:20:46.756Z,27.78
2018-04-27T17:23:14.411Z,29.09
2018-04-27T17:25:42.040Z,28.26
2018-04-27T17:28:09.696Z,28.90
2018-04-27T17:30:37.307Z,28.65
2018-04-27T17:33:04.987Z,28.27
2018-04-27T17:35:32.586Z,29.03
2018-04-27T17:38:00.236Z,28.59
2018-04-27T17:40:27.921Z,29.21
2018-04-27T17:42:55.583Z,28.87
2018-04-27T17:45:23.195Z,29.98
2018-04-27T17:47:50.880Z,29.46
2018-04-27T17:50:18.578Z,29.73
2018-04-27T17:52:46.188Z,30.06
2018-04-27T17:55:13.843Z,30.16
2018-04-27T17:57:41.449Z,30.24
2018-04-27T18:00:09.145Z,30.62
2018-04-27T18:02:36.742Z,30.47
2018-04-27T18:05:04.383Z,30.16
2018-04-27T18:07:32.047Z,30.40
2018-04-27T18:09:59.677Z,29.83
2018-04-27T18:12:27.283Z,30.25
2018-04-27T18:14:54.930Z,30.09
2018-04-27T18:17:22.647Z,30.69
2018-04-27T18:19:50.296Z,30.47
2018-04-27T18:22:17.907Z,32.11
2018-04-27T18:24:45.591Z,32.90
2018-04-27T18:27:13.203Z,32.13
2018-04-27T18:29:40.850Z,32.24
2018-04-27T18:32:08.450Z,33.00
2018-04-27T18:34:36.130Z,33.11
2018-04-27T18:37:03.783Z,33.41
2018-04-27T18:39:31.427Z,33.54
2018-04-27T18:41:59.044Z,33.59
2018-04-27T18:44:26.725Z,34.05
2018-04-27T18:46:54.356Z,34.23
2018-04-27T18:49:22.059Z,34.31
2018-04-27T18:51:49.694Z,34.53
2018-04-27T18:54:17.394Z,35.10
2018-04-27T18:56:45.080Z,35.20
2018-04-27T18:59:12.744Z,35.63
2018-04-27T19:01:40.350Z,35.44
2018-04-27T19:04:08.028Z,35.77
2018-04-27T19:06:35.648Z,36.08
2018-04-27T19:09:03.359Z,36.32
2018-04-27T19:11:31.038Z,35.93
2018-04-27T19:13:58.705Z,35.74
2018-04-27T19:16:26.329Z,36.69
2018-04-27T19:18:56.761Z,36.72
2018-04-27T19:21:24.452Z,37.04
2018-04-27T19:23:54.870Z,36.73
2018-04-27T19:26:22.609Z,37.48
2018-04-27T19:28:50.341Z,37.67
2018-04-27T19:31:18.033Z,38.63
2018-04-27T19:33:45.682Z,38.40
2018-04-27T19:36:13.310Z,37.96
2018-04-27T19:38:41.024Z,38.28
2018-04-27T19:41:08.639Z,39.08
2018-04-27T19:43:36.303Z,38.95
2018-04-27T19:46:03.909Z,38.14
2018-04-27T19:48:31.550Z,39.07
2018-04-27T19:50:59.150Z,39.59
2018-04-27T19:53:26.801Z,39.36
2018-04-27T19:55:54.423Z,39.81
2018-04-27T19:58:22.065Z,39.76
2018-04-27T20:00:49.760Z,39.95
2018-04-27T20:03:17.382Z,40.69
2018-04-27T20:05:46.863Z,40.48
2018-04-27T20:08:14.507Z,39.84
2018-04-27T20:10:45.256Z,40.37
2018-04-27T20:13:19.515Z,40.56
2018-04-27T20:15:52.052Z,39.94
2018-04-27T20:18:20.393Z,40.58
2018-04-27T20:20:48.140Z,40.73
2018-04-27T20:23:15.812Z,40.48
2018-04-27T20:25:43.518Z,40.90
2018-04-27T20:28:11.150Z,41.27
2018-04-27T20:30:39.698Z,41.50
2018-04-27T20:33:08.752Z,41.91
2018-04-27T20:35:36.430Z,44.84
2018-04-27T20:38:29.522Z,45.11
2018-04-27T20:40:57.226Z,45.43
2018-04-27T20:43:24.866Z,45.67
2018-04-27T20:45:55.421Z,45.62
2018-04-27T20:48:24.787Z,45.20
2018-04-27T20:51:00.068Z,45.39
2018-04-27T20:53:28.469Z,45.65
2018-04-27T20:56:02.542Z,44.98
2018-04-27T20:58:30.223Z,43.90
2018-04-27T21:00:58.816Z,44.64
2018-04-27T21:03:26.530Z,44.28
2018-04-27T21:05:54.259Z,44.59
2018-04-27T21:08:21.932Z,45.06
2018-04-27T21:10:49.614Z,46.07
2018-04-27T21:13:17.237Z,46.04
2018-04-27T21:15:44.913Z,45.27
2018-04-27T21:18:15.438Z,45.86
2018-04-27T21:20:43.105Z,45.40
2018-04-27T21:23:10.724Z,46.42
2018-04-27T21:25:38.439Z,46.70
2018-04-27T21:28:09.578Z,46.54
2018-04-27T21:30:37.335Z,46.80
2018-04-27T21:33:05.023Z,47.20
2018-04-27T21:38:48.110Z,47.08
2018-04-27T21:44:15.478Z,47.46
2018-04-27T21:46:43.203Z,47.64
2018-04-27T21:49:10.893Z,47.89
2018-04-27T21:51:40.195Z,47.72
2018-04-27T21:54:10.487Z,47.87
2018-04-27T21:56:46.727Z,48.22
2018-04-27T21:59:18.183Z,48.04
2018-04-27T22:01:46.278Z,48.94
2018-04-27T22:04:13.939Z,48.87
2018-04-27T22:06:42.230Z,49.65
2018-04-27T22:09:09.887Z,49.58
2018-04-27T22:11:41.628Z,49.59
2018-04-27T22:14:10.141Z,50.10
2018-04-27T22:16:40.587Z,49.70
2018-04-27T22:19:08.301Z,50.41
2018-04-27T22:21:38.823Z,50.44
2018-04-27T22:24:07.243Z,50.22
2018-04-27T22:26:35.026Z,50.61
2018-04-27T22:29:06.355Z,50.47
2018-04-27T22:31:34.091Z,50.12
2018-04-27T22:34:02.610Z,50.30
2018-04-27T22:36:31.839Z,50.90
2018-04-27T22:42:09.068Z,51.06
2018-04-27T22:47:38.074Z,51.32
2018-04-27T22:50:06.673Z,51.52
2018-04-27T22:52:35.051Z,52.00
2018-04-27T22:55:02.775Z,52.02
2018-04-27T22:57:34.328Z,51.93
2018-04-27T23:00:12.382Z,52.46
2018-04-27T23:02:40.092Z,52.10
2018-04-27T23:08:06.519Z,52.05
2018-04-27T23:10:40.153Z,51.92
2018-04-27T23:13:07.868Z,51.70
2018-04-27T23:15:36.987Z,52.12
2018-04-27T23:18:21.360Z,51.81
2018-04-27T23:20:49.061Z,52.35
2018-04-27T23:23:17.516Z,52.52
2018-04-27T23:25:54.082Z,54.05
2018-04-27T23:28:21.754Z,54.66
2018-04-27T23:30:49.435Z,54.90
2018-04-27T23:33:17.084Z,55.10
2018-04-27T23:36:00.416Z,55.16
2018-04-27T23:38:28.155Z,55.27
2018-04-27T23:40:58.624Z,54.87
2018-04-27T23:43:26.351Z,54.80
2018-04-27T23:45:53.968Z,54.74
2018-04-27T23:48:21.658Z,54.23
2018-04-27T23:50:50.094Z,54.20
2018-04-27T23:53:17.801Z,54.09
2018-04-27T23:55:45.583Z,54.08
2018-04-27T23:58:20.903Z,53.75
